Time;durP1;ratioP1;P1;durP2;ratioP2;P2;SDS_P1;SDS_P2;PMS_P1;PMS_P2;Temp;Humidity;BMP_temperature;BMP_pressure;BME280_temperature;BME280_humidity;BME280_pressure;Samples;Min_cycle;Max_cycle;Signal;HPM_P1;HPM_P2
2022/06/26 00:02:09;;;;;;;5.40;3.08;;;;;;;15.90;100.00;100746.45;1729010;82;20976;-43
2022/06/26 00:04:37;;;;;;;4.25;2.65;;;;;;;15.91;100.00;100751.63;1735552;82;20979;-43
2022/06/26 00:07:04;;;;;;;5.12;2.10;;;;;;;15.89;100.00;100749.97;1712178;83;21028;-43
2022/06/26 00:09:31;;;;;;;4.92;2.40;;;;;;;15.86;100.00;100742.22;1712672;83;20972;-43
2022/06/26 00:11:59;;;;;;;10.05;2.85;;;;;;;15.82;100.00;100747.99;1717714;83;21585;-43
2022/06/26 00:14:26;;;;;;;2.55;2.40;;;;;;;15.76;100.00;100747.75;1741891;82;21533;-44
2022/06/26 00:16:53;;;;;;;5.20;2.50;;;;;;;15.73;100.00;100743.95;1749144;80;21018;-43
2022/06/26 00:19:20;;;;;;;6.47;2.25;;;;;;;15.70;100.00;100741.91;1749192;81;20975;-43
2022/06/26 00:21:47;;;;;;;2.52;2.08;;;;;;;15.66;100.00;100736.81;1749445;82;21509;-43
2022/06/26 00:24:14;;;;;;;4.87;2.27;;;;;;;15.65;100.00;100742.07;1748437;82;21132;-43
2022/06/26 00:26:40;;;;;;;2.37;2.20;;;;;;;15.63;100.00;100745.19;1746819;82;20992;-43
2022/06/26 00:29:07;;;;;;;7.10;2.40;;;;;;;15.61;100.00;100736.56;1749118;81;21011;-43
2022/06/26 00:31:34;;;;;;;4.72;2.65;;;;;;;15.59;100.00;100747.52;1740365;82;21027;-43
2022/06/26 00:34:00;;;;;;;3.52;2.27;;;;;;;15.57;100.00;100744.94;1736749;82;20900;-44
2022/06/26 00:36:28;;;;;;;3.85;2.58;;;;;;;15.55;100.00;100738.09;1744491;82;21134;-43
2022/06/26 00:38:55;;;;;;;3.50;1.82;;;;;;;15.52;100.00;100742.48;1746408;82;20975;-43
2022/06/26 00:41:21;;;;;;;5.12;2.15;;;;;;;15.49;100.00;100746.97;1749216;81;21530;-43
2022/06/26 00:43:48;;;;;;;2.95;2.20;;;;;;;15.47;100.00;100739.19;1734396;82;20992;-43
2022/06/26 00:46:15;;;;;;;4.37;2.02;;;;;;;15.43;100.00;100745.42;1717704;83;21459;-43
2022/06/26 00:48:42;;;;;;;5.85;1.70;;;;;;;15.37;100.00;100749.55;1717855;83;21146;-43
2022/06/26 00:51:09;;;;;;;3.90;1.80;;;;;;;15.33;100.00;100754.47;1717759;83;20984;-43
2022/06/26 00:53:36;;;;;;;6.00;1.80;;;;;;;15.27;100.00;100753.34;1729302;82;20975;-43
2022/06/26 00:56:04;;;;;;;4.15;2.00;;;;;;;15.20;100.00;100755.33;1749033;82;20984;-43
2022/06/26 00:58:30;;;;;;;2.37;2.00;;;;;;;15.14;100.00;100752.47;1749009;81;21479;-43
2022/06/26 01:00:57;;;;;;;3.27;2.00;;;;;;;15.08;100.00;100760.49;1749111;82;21220;-43
2022/06/26 01:03:24;;;;;;;1.85;1.57;;;;;;;15.03;100.00;100756.72;1747278;81;20893;-43
2022/06/26 01:05:50;;;;;;;4.03;1.95;;;;;;;14.97;100.00;100758.23;1749312;82;21792;-43
2022/06/26 01:08:17;;;;;;;2.45;2.33;;;;;;;14.90;100.00;100767.12;1721616;82;20956;-43
2022/06/26 01:10:45;;;;;;;3.83;1.80;;;;;;;14.83;100.00;100773.00;1748103;81;20941;-43
2022/06/26 01:13:13;;;;;;;6.72;1.95;;;;;;;14.77;100.00;100767.96;1720758;82;21155;-43
2022/06/26 01:15:40;;;;;;;7.95;2.05;;;;;;;14.71;100.00;100769.45;1725112;82;21015;-44
2022/06/26 01:18:07;;;;;;;3.47;2.00;;;;;;;14.64;100.00;100777.44;1719205;82;20944;-44
2022/06/26 01:20:34;;;;;;;9.40;2.50;;;;;;;14.58;100.00;100772.42;1719363;83;21490;-44
2022/06/26 01:23:03;;;;;;;4.10;2.40;;;;;;;14.57;100.00;100780.27;1720176;82;20940;-44
2022/06/26 01:25:46;;;;;;;3.90;2.17;;;;;;;14.56;100.00;100775.95;1738221;82;21457;-44
2022/06/26 01:28:13;;;;;;;4.17;2.27;;;;;;;14.54;100.00;100774.72;1749127;81;21577;-43
2022/06/26 01:30:41;;;;;;;2.87;2.00;;;;;;;14.54;100.00;100776.02;1749090;82;20948;-44
2022/06/26 01:33:08;;;;;;;8.98;2.42;;;;;;;14.57;100.00;100780.27;1736815;81;20940;-44
2022/06/26 01:35:35;;;;;;;8.60;2.55;;;;;;;14.60;100.00;100787.55;1747837;82;20963;-43
2022/06/26 01:38:16;;;;;;;5.15;2.05;;;;;;;14.63;100.00;100793.10;1749371;82;21164;-43
2022/06/26 01:40:44;;;;;;;5.45;2.20;;;;;;;14.65;100.00;100796.52;1736014;82;20940;-44
2022/06/26 01:43:15;;;;;;;9.90;1.98;;;;;;;14.66;100.00;100788.66;1732722;82;21570;-43
2022/06/26 01:45:47;;;;;;;5.30;2.00;;;;;;;14.69;100.00;100789.03;1717960;83;20960;-43
2022/06/26 01:48:13;;;;;;;6.03;2.33;;;;;;;14.70;100.00;100787.27;1718047;83;21612;-44
2022/06/26 01:50:41;;;;;;;5.33;2.25;;;;;;;14.71;100.00;100791.17;1719683;82;21005;-44
2022/06/26 01:53:09;;;;;;;6.72;2.10;;;;;;;14.74;100.00;100794.11;1720034;82;21007;-44
2022/06/26 01:55:37;;;;;;;5.00;1.80;;;;;;;14.74;100.00;100791.07;1719386;82;20897;-44
2022/06/26 01:58:06;;;;;;;2.30;2.10;;;;;;;14.75;100.00;100794.52;1719353;83;20980;-44
2022/06/26 02:00:35;;;;;;;2.12;1.92;;;;;;;14.76;100.00;100798.39;1724309;82;21018;-44
2022/06/26 02:03:02;;;;;;;2.98;1.92;;;;;;;14.77;100.00;100796.19;1712875;82;21862;-44
2022/06/26 02:05:28;;;;;;;2.17;2.00;;;;;;;14.81;100.00;100791.75;1732495;82;20980;-44
2022/06/26 02:07:55;;;;;;;5.95;2.02;;;;;;;14.83;100.00;100794.28;1749247;82;20984;-44
2022/06/26 02:15:55;;;;;;;10.80;2.05;;;;;;;14.88;100.00;100802.81;1735333;82;21165;-43
2022/06/26 02:18:23;;;;;;;2.80;1.98;;;;;;;14.89;100.00;100803.20;1735434;82;21024;-43
2022/06/26 02:20:50;;;;;;;2.65;1.62;;;;;;;14.90;100.00;100803.17;1734589;82;20917;-43
2022/06/26 02:23:17;;;;;;;3.87;1.90;;;;;;;14.92;100.00;100798.77;1734177;82;21104;-43
2022/06/26 02:25:44;;;;;;;7.87;1.90;;;;;;;14.93;100.00;100797.86;1710098;82;20980;-44
2022/06/26 02:28:11;;;;;;;1.82;1.60;;;;;;;14.96;100.00;100799.97;1704808;82;21236;-44
2022/06/26 02:30:38;;;;;;;1.60;1.50;;;;;;;14.99;100.00;100802.48;1704331;83;21004;-44
2022/06/26 02:33:05;;;;;;;4.45;1.77;;;;;;;15.02;100.00;100796.73;1728227;82;21000;-44
2022/06/26 02:35:32;;;;;;;2.65;1.80;;;;;;;15.05;100.00;100784.06;1735204;81;20968;-44
2022/06/26 02:37:59;;;;;;;5.12;1.92;;;;;;;15.09;100.00;100786.97;1734681;82;21618;-44
2022/06/26 02:40:27;;;;;;;5.28;1.85;;;;;;;15.11;100.00;100786.46;1727683;81;21065;-44
2022/06/26 02:42:54;;;;;;;2.30;2.10;;;;;;;15.15;100.00;100787.20;1722567;82;21487;-43
2022/06/26 02:45:21;;;;;;;3.72;1.82;;;;;;;15.17;100.00;100785.42;1734408;81;21521;-44
2022/06/26 02:47:47;;;;;;;2.75;1.77;;;;;;;15.16;100.00;100783.25;1735332;82;21121;-44
2022/06/26 02:50:15;;;;;;;2.00;1.90;;;;;;;15.20;100.00;100789.23;1735244;81;20976;-44
2022/06/26 02:52:42;;;;;;;6.17;1.80;;;;;;;15.24;100.00;100797.34;1734475;82;21209;-44
2022/06/26 02:55:10;;;;;;;8.53;1.77;;;;;;;15.29;100.00;100799.81;1734368;82;20901;-44
2022/06/26 02:57:40;;;;;;;3.20;1.98;;;;;;;15.32;100.00;100795.80;1721766;81;20992;-43
2022/06/26 03:00:09;;;;;;;2.75;2.00;;;;;;;15.37;100.00;100797.80;1706076;82;20933;-44
2022/06/26 03:02:38;;;;;;;4.60;1.92;;;;;;;15.43;100.00;100803.27;1708940;82;21039;-43
2022/06/26 03:05:07;;;;;;;2.37;1.60;;;;;;;15.47;100.00;100805.70;1732107;82;21180;-44
2022/06/26 03:07:35;;;;;;;4.33;1.77;;;;;;;15.52;100.00;100807.70;1735176;82;21007;-44
2022/06/26 03:10:05;;;;;;;3.77;1.45;;;;;;;15.56;100.00;100810.23;1735136;82;20976;-43
2022/06/26 03:12:32;;;;;;;6.62;1.72;;;;;;;15.60;100.00;100813.97;1733367;81;21596;-44
2022/06/26 03:14:59;;;;;;;3.37;1.98;;;;;;;15.64;100.00;100814.73;1734999;81;20933;-44
2022/06/26 03:17:25;;;;;;;4.35;1.70;;;;;;;15.67;100.00;100815.92;1735239;82;22540;-44
2022/06/26 03:19:53;;;;;;;4.60;1.98;;;;;;;15.70;100.00;100818.42;1735112;82;20889;-44
2022/06/26 03:22:20;;;;;;;3.67;1.70;;;;;;;15.75;100.00;100819.12;1721137;82;20995;-43
2022/06/26 03:24:47;;;;;;;7.70;1.90;;;;;;;15.82;100.00;100826.29;1705738;83;21541;-43
2022/06/26 03:27:13;;;;;;;4.47;1.62;;;;;;;15.86;100.00;100821.36;1705990;84;21027;-43
2022/06/26 03:29:40;;;;;;;5.47;1.95;;;;;;;15.90;100.00;100819.06;1705941;82;21138;-44
2022/06/26 03:32:08;;;;;;;3.50;2.10;;;;;;;15.95;100.00;100820.22;1716147;82;20925;-44
2022/06/26 03:34:37;;;;;;;4.67;2.25;;;;;;;16.00;100.00;100820.91;1735228;81;20902;-44
2022/06/26 03:37:05;;;;;;;3.83;1.72;;;;;;;16.05;100.00;100820.31;1718583;81;21471;-43
2022/06/26 03:39:32;;;;;;;6.58;2.40;;;;;;;16.11;100.00;100814.47;1705847;83;21489;-43
2022/06/26 03:42:01;;;;;;;3.83;1.80;;;;;;;16.16;100.00;100811.23;1717820;81;22130;-43
2022/06/26 03:44:30;;;;;;;4.03;1.75;;;;;;;16.22;100.00;100814.91;1735306;82;20944;-43
2022/06/26 03:46:58;;;;;;;3.55;1.75;;;;;;;16.26;100.00;100811.28;1735169;81;20949;-43
2022/06/26 03:49:25;;;;;;;5.17;1.82;;;;;;;16.33;100.00;100809.30;1735282;82;21008;-43
2022/06/26 03:51:52;;;;;;;5.28;2.00;;;;;;;16.37;100.00;100813.50;1725065;82;21602;-43
2022/06/26 03:54:19;;;;;;;8.18;2.15;;;;;;;16.41;100.00;100814.25;1705938;84;21227;-43
2022/06/26 03:56:46;;;;;;;3.52;1.70;;;;;;;16.46;100.00;100822.76;1705882;84;21583;-43
2022/06/26 03:59:13;;;;;;;6.90;1.90;;;;;;;16.48;100.00;100824.86;1706045;84;20926;-43
2022/06/26 04:01:40;;;;;;;6.53;2.08;;;;;;;16.52;100.00;100827.75;1717182;82;20968;-43
2022/06/26 04:04:07;;;;;;;8.90;1.87;;;;;;;16.55;100.00;100827.66;1734929;82;20882;-43
2022/06/26 04:06:34;;;;;;;5.72;1.95;;;;;;;16.60;100.00;100832.25;1735329;82;21154;-45
2022/06/26 04:09:03;;;;;;;7.78;2.05;;;;;;;16.68;100.00;100842.86;1734546;82;20984;-43
2022/06/26 04:11:30;;;;;;;6.20;1.87;;;;;;;16.77;100.00;100841.19;1729154;81;21015;-43
2022/06/26 04:14:00;;;;;;;4.87;2.50;;;;;;;16.88;100.00;100841.65;1713821;82;21027;-44
2022/06/26 04:16:27;;;;;;;5.25;1.82;;;;;;;16.92;100.00;100833.21;1713727;83;20983;-43
2022/06/26 04:18:55;;;;;;;4.20;1.67;;;;;;;16.98;100.00;100838.66;1713795;83;21898;-43
2022/06/26 04:21:22;;;;;;;7.35;2.00;;;;;;;17.07;100.00;100839.19;1724481;82;21466;-43
2022/06/26 04:23:49;;;;;;;4.47;1.80;;;;;;;17.19;100.00;100847.00;1743381;82;20971;-44
2022/06/26 04:26:17;;;;;;;4.40;1.90;;;;;;;17.30;100.00;100847.02;1743381;81;20932;-43
2022/06/26 04:28:44;;;;;;;4.75;1.90;;;;;;;17.42;100.00;100846.53;1743444;82;20956;-43
2022/06/26 04:31:11;;;;;;;2.52;1.50;;;;;;;17.56;100.00;100846.44;1735197;82;21208;-44
2022/06/26 04:33:39;;;;;;;8.08;2.08;;;;;;;17.63;100.00;100850.02;1713726;83;21776;-44
2022/06/26 04:36:07;;;;;;;6.78;2.52;;;;;;;17.71;100.00;100847.08;1713779;83;20987;-44
2022/06/26 04:38:35;;;;;;;2.02;1.80;;;;;;;17.80;100.00;100852.39;1730834;82;20892;-43
2022/06/26 04:41:31;;;;;;;4.53;1.77;;;;;;;17.84;100.00;100843.48;1737474;81;20992;-43
2022/06/26 04:43:30;;;;;;;6.62;1.82;;;;;;;17.88;100.00;100842.42;1713252;83;21612;-43
2022/06/26 04:45:57;;;;;;;4.55;1.95;;;;;;;17.92;100.00;100845.30;1713618;83;21592;-43
2022/06/26 04:48:25;;;;;;;11.00;2.45;;;;;;;17.95;100.00;100840.41;1713703;83;20901;-43
2022/06/26 04:50:53;;;;;;;2.10;1.95;;;;;;;18.00;100.00;100849.38;1717468;82;20976;-43
2022/06/26 04:53:20;;;;;;;3.85;2.02;;;;;;;18.01;100.00;100850.63;1743319;81;21525;-42
2022/06/26 04:55:47;;;;;;;11.55;2.22;;;;;;;18.02;100.00;100843.64;1743416;82;21137;-43
2022/06/26 04:58:14;;;;;;;5.03;2.10;;;;;;;18.02;100.00;100844.95;1743174;82;22034;-43
2022/06/26 05:00:41;;;;;;;3.52;2.22;;;;;;;18.04;100.00;100842.64;1742089;81;20936;-43
2022/06/26 05:03:09;;;;;;;6.65;2.30;;;;;;;18.07;100.00;100842.53;1713374;83;20975;-43
2022/06/26 05:05:38;;;;;;;2.60;2.12;;;;;;;18.14;100.00;100848.33;1708841;83;20896;-43
2022/06/26 05:08:07;;;;;;;3.30;1.87;;;;;;;18.16;100.00;100847.80;1713124;83;21192;-43
2022/06/26 05:10:37;;;;;;;7.58;1.98;;;;;;;18.19;100.00;100852.06;1713735;82;20956;-44
2022/06/26 05:13:03;;;;;;;3.02;2.45;;;;;;;18.24;100.00;100852.70;1706747;83;21072;-44
2022/06/26 05:15:49;;;;;;;5.30;2.40;;;;;;;18.30;100.00;100856.36;1706038;84;21008;-44
2022/06/26 05:18:17;;;;;;;7.28;2.30;;;;;;;18.43;100.00;100849.27;1705964;83;20932;-43
2022/06/26 05:20:43;;;;;;;5.75;1.98;;;;;;;18.63;100.00;100849.22;1706561;82;21840;-43
2022/06/26 05:23:12;;;;;;;5.65;1.80;;;;;;;18.85;100.00;100849.53;1709867;82;20989;-44
2022/06/26 05:27:24;;;;;;;13.32;1.98;;;;;;;19.19;100.00;100854.95;1797711;79;22946;-44
2022/06/26 05:29:51;;;;;;;1.80;1.70;;;;;;;19.31;100.00;100851.74;1757482;80;20976;-44
2022/06/26 05:32:17;;;;;;;5.42;1.80;;;;;;;19.56;100.00;100854.91;1754473;80;21235;-44
2022/06/26 05:34:44;;;;;;;3.80;1.87;;;;;;;19.78;98.10;100853.39;1749014;82;20988;-44
2022/06/26 05:37:12;;;;;;;2.45;1.80;;;;;;;19.94;97.06;100861.36;1749268;82;20936;-44
2022/06/26 05:39:39;;;;;;;3.55;1.57;;;;;;;20.11;95.63;100861.79;1746731;82;20964;-45
2022/06/26 05:42:06;;;;;;;1.52;1.37;;;;;;;20.27;95.18;100865.77;1731744;82;21007;-42
2022/06/26 05:44:33;;;;;;;8.60;2.33;;;;;;;20.45;94.07;100859.16;1719319;83;21091;-42
2022/06/26 05:47:04;;;;;;;1.85;1.35;;;;;;;20.62;92.00;100862.19;1719151;83;21044;-44
2022/06/26 05:49:42;;;;;;;4.08;1.55;;;;;;;20.79;91.10;100854.68;1715044;82;20948;-43
2022/06/26 05:52:19;;;;;;;8.00;1.75;;;;;;;20.94;90.39;100855.19;1735255;82;21000;-43
2022/06/26 05:54:48;;;;;;;3.15;1.60;;;;;;;21.19;89.85;100860.38;1708541;82;21027;-43
2022/06/26 05:57:34;;;;;;;4.53;1.60;;;;;;;21.58;87.99;100863.44;1749200;80;21268;-44
2022/06/26 06:00:07;;;;;;;6.45;1.57;;;;;;;22.01;86.30;100861.86;1745578;82;20975;-44
2022/06/26 06:02:46;;;;;;;2.45;1.85;;;;;;;22.28;84.45;100862.44;1724354;82;21003;-44
2022/06/26 06:05:15;;;;;;;2.37;1.77;;;;;;;22.45;80.59;100870.62;1719123;83;20975;-44
2022/06/26 06:07:42;;;;;;;2.00;1.90;;;;;;;22.49;81.80;100864.23;1719377;83;21657;-44
2022/06/26 06:10:09;;;;;;;3.72;1.65;;;;;;;22.52;78.79;100871.95;1719216;83;21236;-44
2022/06/26 06:12:37;;;;;;;1.62;1.52;;;;;;;22.56;79.53;100876.58;1741483;82;21000;-44
2022/06/26 06:15:07;;;;;;;2.00;1.80;;;;;;;22.56;78.05;100876.09;1748982;81;20945;-43
2022/06/26 06:17:40;;;;;;;6.62;1.55;;;;;;;22.57;78.99;100880.42;1749122;82;20944;-43
2022/06/26 06:20:18;;;;;;;1.85;1.70;;;;;;;22.64;78.69;100883.53;1749094;82;20955;-44
2022/06/26 06:22:54;;;;;;;5.60;1.57;;;;;;;22.73;78.60;100880.78;1746855;81;21943;-44
2022/06/26 06:25:22;;;;;;;2.75;1.60;;;;;;;22.80;78.32;100877.66;1748914;82;20995;-43
2022/06/26 06:27:49;;;;;;;3.98;1.70;;;;;;;22.88;77.59;100881.14;1749804;82;21019;-43
2022/06/26 06:30:17;;;;;;;5.15;1.72;;;;;;;22.95;77.08;100884.21;1749608;82;20889;-43
2022/06/26 06:32:45;;;;;;;2.75;1.60;;;;;;;23.01;75.37;100884.30;1726725;82;20988;-43
2022/06/26 06:35:14;;;;;;;4.85;1.85;;;;;;;23.18;75.57;100882.74;1717671;82;21101;-45
2022/06/26 06:37:42;;;;;;;3.60;1.52;;;;;;;23.44;75.19;100877.58;1728197;82;20884;-44
2022/06/26 06:40:10;;;;;;;1.72;1.62;;;;;;;23.78;73.79;100881.91;1749183;81;20952;-45
2022/06/26 06:42:39;;;;;;;3.65;1.92;;;;;;;24.11;73.10;100872.63;1723767;82;20991;-45
2022/06/26 06:45:11;;;;;;;5.67;1.60;;;;;;;24.34;72.74;100876.80;1723772;82;21027;-44
2022/06/26 06:47:41;;;;;;;2.77;1.77;;;;;;;24.50;68.45;100875.73;1717479;83;21493;-44
2022/06/26 06:50:26;;;;;;;6.55;1.90;;;;;;;24.49;68.88;100868.75;1719555;83;20971;-44
2022/06/26 06:52:55;;;;;;;5.35;2.00;;;;;;;24.50;67.72;100862.03;1722046;82;21533;-44
2022/06/26 06:55:23;;;;;;;6.30;2.02;;;;;;;24.50;66.61;100864.69;1719373;83;20971;-44
2022/06/26 06:57:50;;;;;;;6.97;2.10;;;;;;;24.47;67.37;100867.52;1719479;83;21004;-43
2022/06/26 07:00:16;;;;;;;6.35;2.10;;;;;;;24.57;67.95;100866.39;1719458;83;21146;-43
2022/06/26 07:02:44;;;;;;;2.50;1.70;;;;;;;24.73;67.02;100867.95;1748963;82;20972;-44
2022/06/26 07:05:12;;;;;;;4.78;1.90;;;;;;;24.83;67.97;100868.99;1749114;82;20984;-44
2022/06/26 07:07:39;;;;;;;5.30;2.00;;;;;;;24.93;66.05;100872.68;1749485;82;21538;-44
2022/06/26 07:10:09;;;;;;;6.92;2.15;;;;;;;25.03;67.53;100874.64;1749361;82;20971;-43
2022/06/26 07:12:37;;;;;;;1.70;1.60;;;;;;;25.18;65.55;100876.17;1730765;82;20983;-44
2022/06/26 07:15:06;;;;;;;1.75;1.65;;;;;;;25.38;65.02;100868.52;1727956;81;21028;-44
2022/06/26 07:17:33;;;;;;;5.17;1.60;;;;;;;25.53;62.00;100876.69;1741167;80;21063;-44
2022/06/26 07:20:00;;;;;;;6.83;1.95;;;;;;;25.64;61.68;100865.28;1749297;82;20983;-44
2022/06/26 07:22:27;;;;;;;8.13;1.80;;;;;;;25.75;61.04;100856.97;1749178;82;20928;-44
2022/06/26 07:25:01;;;;;;;4.53;1.65;;;;;;;25.82;60.09;100857.72;1747322;82;21109;-44
2022/06/26 07:27:34;;;;;;;5.30;2.12;;;;;;;25.83;59.65;100852.77;1748749;82;20991;-44
2022/06/26 07:30:01;;;;;;;4.60;2.08;;;;;;;25.79;60.39;100855.30;1744309;82;21656;-44
2022/06/26 07:32:29;;;;;;;3.90;2.25;;;;;;;25.82;60.36;100852.41;1719477;82;20979;-44
2022/06/26 07:34:55;;;;;;;4.75;3.00;;;;;;;25.95;60.49;100850.98;1719531;83;21050;-44
2022/06/26 07:37:22;;;;;;;5.65;2.20;;;;;;;26.06;59.61;100855.45;1719486;83;22454;-44
2022/06/26 07:39:49;;;;;;;4.15;2.25;;;;;;;26.09;59.55;100857.03;1733292;82;20932;-43
2022/06/26 07:42:17;;;;;;;5.50;2.30;;;;;;;26.20;57.44;100850.92;1749092;81;21039;-45
2022/06/26 07:44:45;;;;;;;5.25;2.10;;;;;;;26.13;59.29;100862.92;1749237;81;20976;-44
2022/06/26 07:47:13;;;;;;;8.98;2.40;;;;;;;26.21;58.95;100855.26;1746910;82;21030;-45
2022/06/26 07:49:51;;;;;;;3.12;2.08;;;;;;;26.19;59.16;100851.88;1738079;82;20968;-46
2022/06/26 07:52:18;;;;;;;3.42;1.95;;;;;;;26.23;60.08;100852.00;1724322;82;20944;-44
2022/06/26 07:54:48;;;;;;;6.72;2.70;;;;;;;26.44;60.68;100851.27;1736509;82;20991;-44
2022/06/26 07:57:19;;;;;;;5.67;2.17;;;;;;;26.64;59.98;100847.00;1733965;82;21000;-45
2022/06/26 07:59:46;;;;;;;4.05;2.10;;;;;;;26.68;59.79;100850.63;1724071;82;20941;-44
2022/06/26 08:02:14;;;;;;;3.27;2.20;;;;;;;26.77;58.37;100851.66;1676061;85;21192;-44
2022/06/26 08:04:43;;;;;;;7.28;2.10;;;;;;;26.77;58.90;100850.34;1731869;80;21090;-44
2022/06/26 08:07:15;;;;;;;6.60;2.92;;;;;;;26.88;58.00;100845.51;1748729;82;20905;-44
2022/06/26 08:09:43;;;;;;;3.72;2.05;;;;;;;27.02;59.06;100859.48;1749076;82;20980;-44
2022/06/26 08:12:10;;;;;;;4.53;2.15;;;;;;;26.95;56.81;100850.70;1748917;82;21028;-44
2022/06/26 08:14:51;;;;;;;3.92;2.02;;;;;;;26.79;57.35;100856.86;1740888;81;21845;-46
2022/06/26 08:17:18;;;;;;;4.78;2.27;;;;;;;26.75;57.83;100858.09;1748996;82;20952;-44
2022/06/26 08:19:45;;;;;;;5.75;2.50;;;;;;;26.86;59.95;100846.13;1749188;82;20960;-44
2022/06/26 08:22:11;;;;;;;4.60;2.20;;;;;;;27.14;58.79;100844.34;1748848;82;20920;-44
2022/06/26 08:24:41;;;;;;;3.22;2.35;;;;;;;27.29;56.01;100839.56;1743150;82;20987;-44
2022/06/26 08:27:07;;;;;;;5.40;2.75;;;;;;;27.49;56.31;100845.38;1716162;82;21089;-44
2022/06/26 08:29:35;;;;;;;3.45;2.15;;;;;;;27.63;57.05;100848.23;1684386;83;20940;-43
2022/06/26 08:32:03;;;;;;;2.95;2.08;;;;;;;27.64;55.13;100843.73;1715484;82;20976;-44
2022/06/26 08:34:31;;;;;;;4.72;1.95;;;;;;;27.60;53.97;100844.98;1717524;82;21802;-45
2022/06/26 08:36:57;;;;;;;12.13;2.30;;;;;;;27.49;53.45;100850.70;1742808;82;20976;-43
2022/06/26 08:39:24;;;;;;;3.37;2.12;;;;;;;27.43;55.06;100846.38;1743308;81;21333;-44
2022/06/26 08:41:53;;;;;;;4.70;1.98;;;;;;;27.43;54.15;100848.56;1743281;82;20933;-44
2022/06/26 08:44:21;;;;;;;4.45;1.67;;;;;;;27.44;54.23;100846.27;1738908;82;21545;-45
2022/06/26 08:46:47;;;;;;;3.98;2.30;;;;;;;27.53;55.13;100848.16;1711831;82;20939;-45
2022/06/26 08:49:17;;;;;;;5.00;1.85;;;;;;;27.73;53.83;100843.45;1725415;82;20904;-45
2022/06/26 08:51:45;;;;;;;2.10;1.85;;;;;;;27.98;52.71;100843.52;1713297;82;21156;-45
2022/06/26 08:54:13;;;;;;;5.85;1.95;;;;;;;28.22;52.58;100843.72;1722602;82;20996;-45
2022/06/26 08:56:43;;;;;;;2.17;2.00;;;;;;;28.28;50.94;100843.65;1721638;82;21004;-45
2022/06/26 08:59:10;;;;;;;6.33;1.80;;;;;;;28.31;51.96;100832.76;1714737;82;21438;-43
2022/06/26 09:01:38;;;;;;;3.47;1.55;;;;;;;28.28;52.96;100844.50;1714470;82;21033;-43
2022/06/26 09:04:05;;;;;;;3.75;2.00;;;;;;;28.25;51.62;100838.13;1715630;82;21059;-45
2022/06/26 09:06:36;;;;;;;3.05;1.45;;;;;;;28.27;51.02;100841.49;1713637;83;21059;-45
2022/06/26 09:09:19;;;;;;;6.25;1.70;;;;;;;28.27;50.07;100844.63;1713720;83;20917;-43
2022/06/26 09:11:46;;;;;;;5.08;1.87;;;;;;;28.26;50.09;100842.47;1700682;82;20940;-45
2022/06/26 09:14:14;;;;;;;7.47;1.80;;;;;;;28.32;50.19;100839.77;1743299;81;20929;-44
2022/06/26 09:16:46;;;;;;;1.90;1.60;;;;;;;28.41;48.40;100836.28;1717879;82;22270;-44
2022/06/26 09:19:18;;;;;;;2.20;1.40;;;;;;;28.50;48.73;100831.96;1713531;83;20925;-45
2022/06/26 09:21:47;;;;;;;3.15;1.22;;;;;;;28.66;49.61;100830.09;1716868;82;21534;-45
2022/06/26 09:24:16;;;;;;;5.25;1.37;;;;;;;29.01;48.44;100829.25;1732621;82;20972;-45
2022/06/26 09:26:43;;;;;;;1.95;1.27;;;;;;;29.25;46.19;100828.80;1731416;81;21007;-44
2022/06/26 09:29:17;;;;;;;2.70;1.62;;;;;;;29.34;45.73;100822.64;1681936;84;21314;-43
2022/06/26 09:31:45;;;;;;;2.77;1.93;;;;;;;29.58;46.64;100825.36;1735325;82;21529;-43
2022/06/26 09:34:25;;;;;;;3.47;3.20;;;;;;;29.77;46.42;100825.78;1691663;83;21022;-43
2022/06/26 09:37:02;;;;;;;2.67;2.10;;;;;;;29.90;45.13;100817.45;1719307;83;20932;-44
2022/06/26 09:39:32;;;;;;;4.55;1.30;;;;;;;30.10;46.83;100813.41;1724744;82;20987;-47
2022/06/26 09:42:18;;;;;;;6.25;1.50;;;;;;;30.46;44.90;100820.14;1726626;82;21261;-43
2022/06/26 09:44:53;;;;;;;1.80;1.32;;;;;;;30.45;42.86;100825.14;1729051;82;20987;-44
2022/06/26 09:47:31;;;;;;;3.47;1.40;;;;;;;30.47;42.12;100823.16;1719227;82;21042;-44
2022/06/26 09:50:01;;;;;;;2.22;1.67;;;;;;;30.40;43.16;100822.09;1748618;82;20944;-44
2022/06/26 09:52:30;;;;;;;4.70;1.55;;;;;;;30.48;43.59;100822.67;1732304;82;21044;-45
2022/06/26 09:54:58;;;;;;;5.85;1.80;;;;;;;30.23;41.75;100822.40;1734195;82;21393;-44
2022/06/26 09:57:26;;;;;;;2.22;1.62;;;;;;;29.73;41.97;100822.21;1741133;82;20932;-44
2022/06/26 09:59:54;;;;;;;4.62;1.80;;;;;;;29.28;43.23;100817.03;1720922;82;22294;-44
2022/06/26 10:07:54;;;;;;;2.05;1.37;;;;;;;29.23;42.53;100798.79;1739830;81;21083;-44
2022/06/26 10:10:24;;;;;;;10.00;1.70;;;;;;;29.05;42.90;100798.20;1709476;82;21179;-44
2022/06/26 10:12:57;;;;;;;7.95;1.57;;;;;;;29.16;44.63;100803.84;1746593;82;21025;-44
2022/06/26 10:15:27;;;;;;;5.12;1.40;;;;;;;29.19;43.58;100802.25;1739161;82;21182;-45
2022/06/26 10:18:30;;;;;;;3.40;1.22;;;;;;;29.01;43.20;100803.94;1724171;82;21023;-44
2022/06/26 10:20:57;;;;;;;2.35;1.30;;;;;;;28.91;44.40;100806.09;1723473;82;21245;-43
2022/06/26 10:23:35;;;;;;;4.47;1.40;;;;;;;28.61;44.89;100803.88;1708832;83;21526;-43
2022/06/26 10:26:19;;;;;;;2.27;1.30;;;;;;;28.35;45.82;100799.06;1719485;83;21003;-44
2022/06/26 10:29:04;;;;;;;2.37;1.20;;;;;;;28.32;45.65;100802.00;1727167;82;20900;-44
2022/06/26 10:31:50;;;;;;;4.40;1.50;;;;;;;28.50;46.36;100797.36;1745534;82;20957;-43
2022/06/26 10:34:24;;;;;;;3.60;1.40;;;;;;;28.63;44.39;100799.25;1745454;82;21152;-44
2022/06/26 10:37:01;;;;;;;1.47;1.32;;;;;;;28.87;44.97;100808.69;1745535;82;20972;-44
2022/06/26 10:39:46;;;;;;;4.33;1.50;;;;;;;28.84;43.01;100811.64;1745064;82;21011;-44
2022/06/26 10:45:32;;;;;;;3.45;1.50;;;;;;;28.89;43.40;100811.23;1715686;83;21550;-43
2022/06/26 10:48:01;;;;;;;1.60;1.50;;;;;;;29.23;42.63;100795.65;1721483;82;21251;-45
2022/06/26 10:50:40;;;;;;;2.25;1.32;;;;;;;29.43;42.22;100804.98;1726716;82;21052;-44
2022/06/26 10:53:16;;;;;;;3.35;1.30;;;;;;;29.57;42.99;100797.48;1724289;82;20995;-46
2022/06/26 10:55:53;;;;;;;3.47;1.45;;;;;;;29.64;41.20;100797.25;1723034;82;21462;-45
2022/06/26 10:58:38;;;;;;;4.28;1.25;;;;;;;29.62;39.85;100793.41;1730337;82;20999;-45
2022/06/26 11:01:07;;;;;;;4.53;1.20;;;;;;;29.47;40.22;100797.03;1732352;82;21273;-45
2022/06/26 11:03:35;;;;;;;1.85;1.30;;;;;;;29.11;40.22;100782.97;1724425;81;20948;-44
2022/06/26 11:06:17;;;;;;;3.75;1.67;;;;;;;28.98;41.34;100788.24;1724093;82;21011;-44
2022/06/26 11:08:51;;;;;;;1.67;1.57;;;;;;;29.25;42.94;100793.67;1742287;81;20976;-44
2022/06/26 11:11:34;;;;;;;4.40;1.63;;;;;;;29.67;42.89;100779.63;1731862;82;21549;-44
2022/06/26 11:14:05;;;;;;;5.70;1.47;;;;;;;30.03;40.74;100769.61;1733043;81;21208;-44
2022/06/26 11:16:43;;;;;;;4.33;1.57;;;;;;;30.24;42.75;100782.20;1678607;85;21035;-44
2022/06/26 11:19:29;;;;;;;1.87;1.55;;;;;;;30.44;39.63;100781.22;1726503;82;20995;-43
2022/06/26 11:22:08;;;;;;;5.25;1.47;;;;;;;30.34;40.89;100775.98;1738196;82;20976;-44
2022/06/26 11:24:35;;;;;;;5.97;1.20;;;;;;;30.48;40.51;100778.63;1726217;82;20971;-44
2022/06/26 11:27:04;;;;;;;2.65;1.30;;;;;;;30.43;39.99;100785.74;1721872;82;21158;-44
2022/06/26 11:29:30;;;;;;;1.92;1.40;;;;;;;29.95;39.66;100785.02;1720217;82;21453;-43
2022/06/26 11:31:57;;;;;;;6.25;1.30;;;;;;;29.50;40.67;100787.41;1728842;82;20977;-43
2022/06/26 11:34:24;;;;;;;5.83;1.40;;;;;;;29.17;39.24;100773.55;1690061;82;20991;-44
2022/06/26 11:36:52;;;;;;;3.92;1.20;;;;;;;28.73;40.29;100789.12;1723103;82;22150;-45
2022/06/26 11:39:20;;;;;;;1.47;1.37;;;;;;;28.38;41.71;100789.48;1728838;82;21243;-45
2022/06/26 11:41:47;;;;;;;9.88;7.47;;;;;;;28.14;42.98;100791.62;1738536;82;20988;-45
2022/06/26 11:44:14;;;;;;;2.72;1.40;;;;;;;28.22;44.39;100790.51;1722194;82;20937;-45
2022/06/26 11:46:41;;;;;;;3.15;1.40;;;;;;;28.56;43.54;100778.67;1744123;82;21039;-45
2022/06/26 11:49:10;;;;;;;1.47;1.30;;;;;;;28.81;42.33;100791.95;1735554;81;21497;-45